Time;durP1;ratioP1;P1;durP2;ratioP2;P2;SDS_P1;SDS_P2;PMS_P1;PMS_P2;Temp;Humidity;BMP_temperature;BMP_pressure;BME280_temperature;BME280_humidity;BME280_pressure;Samples;Min_cycle;Max_cycle;Signal;HPM_P1;HPM_P2
2021/08/08 00:00:28;;;;;;;;;;;;;;;22.71;60.59;99633.38;2083607;28;20247;-44
2021/08/08 00:01:28;;;;;;;;;;;;;;;22.69;60.59;99628.91;2081557;28;19924;-43
2021/08/08 00:02:30;;;;;;;;;;;;;;;22.69;60.48;99631.66;2081505;28;19923;-43
2021/08/08 00:03:31;;;;;;;;;;;;;;;22.69;60.64;99630.81;2078324;28;19951;-43
2021/08/08 00:04:31;;;;;;;;;;;;;;;22.68;60.50;99629.97;2082722;28;20011;-43
2021/08/08 00:05:31;;;;;;;;;;;;;;;22.69;60.63;99626.19;2083490;28;19927;-45
2021/08/08 00:06:32;;;;;;;;;;;;;;;22.69;60.66;99625.34;2082063;28;19920;-43
2021/08/08 00:07:32;;;;;;;;;;;;;;;22.69;60.68;99637.16;2081164;28;20310;-43
2021/08/08 00:08:33;;;;;;;;;;;;;;;22.67;60.63;99627.41;2082476;28;20513;-43
2021/08/08 00:09:33;;;;;;;;;;;;;;;22.67;60.49;99628.25;2081463;28;20238;-45
2021/08/08 00:10:33;;;;;;;;;;;;;;;22.68;60.67;99624.47;2078389;28;19924;-43
2021/08/08 00:11:34;;;;;;;;;;;;;;;22.67;60.66;99631.00;2083436;28;19977;-44
2021/08/08 00:12:34;;;;;;;;;;;;;;;22.67;60.64;99628.25;2081255;28;19923;-43
2021/08/08 00:13:34;;;;;;;;;;;;;;;22.67;60.53;99633.75;2083309;28;20046;-45
2021/08/08 00:14:35;;;;;;;;;;;;;;;22.67;60.51;99628.25;2079108;28;19920;-44
2021/08/08 00:15:37;;;;;;;;;;;;;;;22.67;60.69;99628.25;2085045;28;19913;-43
2021/08/08 00:16:38;;;;;;;;;;;;;;;22.67;60.55;99627.41;2079758;28;20005;-43
2021/08/08 00:17:38;;;;;;;;;;;;;;;22.66;60.69;99625.66;2083106;28;19947;-44
2021/08/08 00:18:39;;;;;;;;;;;;;;;22.66;60.67;99626.56;2084098;28;20009;-44
2021/08/08 00:19:39;;;;;;;;;;;;;;;22.66;60.57;99621.06;2080330;28;20469;-43
2021/08/08 00:20:39;;;;;;;;;;;;;;;22.66;60.67;99626.56;2081889;28;20310;-44
2021/08/08 00:21:40;;;;;;;;;;;;;;;22.65;60.71;99618.47;2082139;28;19987;-44
2021/08/08 00:22:40;;;;;;;;;;;;;;;22.65;60.69;99627.56;2081475;28;19988;-45
2021/08/08 00:23:40;;;;;;;;;;;;;;;22.66;60.70;99626.56;2080568;28;19916;-44
2021/08/08 00:24:41;;;;;;;;;;;;;;;22.67;60.51;99627.41;2081493;28;19934;-44
2021/08/08 00:25:41;;;;;;;;;;;;;;;22.66;60.64;99620.19;2083805;28;19925;-43
2021/08/08 00:26:42;;;;;;;;;;;;;;;22.66;60.65;99615.56;2079511;28;20353;-44
2021/08/08 00:27:42;;;;;;;;;;;;;;;22.66;60.69;99620.19;2082984;28;19921;-45
2021/08/08 00:28:44;;;;;;;;;;;;;;;22.66;60.60;99615.56;2082788;28;19913;-43
2021/08/08 00:29:44;;;;;;;;;;;;;;;22.65;60.50;99627.56;2081037;28;19916;-44
2021/08/08 00:30:44;;;;;;;;;;;;;;;22.66;60.61;99620.19;2081722;28;19971;-44
2021/08/08 00:31:44;;;;;;;;;;;;;;;22.65;60.69;99619.34;2083882;28;20684;-43
2021/08/08 00:32:45;;;;;;;;;;;;;;;22.64;60.57;99623.13;2080822;28;19920;-43
2021/08/08 00:33:45;;;;;;;;;;;;;;;22.66;60.63;99623.81;2081931;28;20346;-44
2021/08/08 00:34:45;;;;;;;;;;;;;;;22.65;60.53;99622.09;2080333;28;20298;-44
2021/08/08 00:35:46;;;;;;;;;;;;;;;22.64;60.67;99623.13;2081930;28;19924;-44
2021/08/08 00:36:46;;;;;;;;;;;;;;;22.65;60.72;99623.97;2083240;28;19921;-44
2021/08/08 00:37:48;;;;;;;;;;;;;;;22.64;60.72;99622.28;2082228;28;19920;-45
2021/08/08 00:38:48;;;;;;;;;;;;;;;22.65;60.75;99623.97;2082681;28;19917;-43
2021/08/08 00:39:48;;;;;;;;;;;;;;;22.64;60.80;99623.13;2082621;28;19942;-44
2021/08/08 00:40:49;;;;;;;;;;;;;;;22.65;60.52;99624.81;2080694;28;19920;-43
2021/08/08 00:41:49;;;;;;;;;;;;;;;22.64;60.60;99623.13;2082893;28;19942;-44
2021/08/08 00:42:49;;;;;;;;;;;;;;;22.64;60.75;99628.63;2080597;28;19921;-44
2021/08/08 00:43:49;;;;;;;;;;;;;;;22.63;60.78;99626.91;2082079;28;20444;-43
2021/08/08 00:44:50;;;;;;;;;;;;;;;22.63;60.69;99632.41;2081452;28;20238;-43
2021/08/08 00:45:50;;;;;;;;;;;;;;;22.63;60.73;99626.91;2083814;28;19923;-43
2021/08/08 00:46:50;;;;;;;;;;;;;;;22.63;60.57;99631.53;2081168;28;19926;-43
2021/08/08 00:47:51;;;;;;;;;;;;;;;22.63;60.78;99637.88;2081776;28;19927;-43
2021/08/08 00:48:51;;;;;;;;;;;;;;;22.64;60.65;99634.13;2081209;28;20259;-44
2021/08/08 00:49:52;;;;;;;;;;;;;;;22.63;60.75;99632.41;2080888;28;20061;-43
2021/08/08 00:50:52;;;;;;;;;;;;;;;22.64;60.75;99634.13;2081770;28;19927;-43
2021/08/08 00:51:53;;;;;;;;;;;;;;;22.64;60.57;99633.28;2082841;28;20096;-43
2021/08/08 00:52:53;;;;;;;;;;;;;;;22.64;60.71;99636.03;2082521;28;19927;-43
2021/08/08 00:53:54;;;;;;;;;;;;;;;22.64;60.76;99639.63;2081373;28;19920;-44
2021/08/08 00:54:54;;;;;;;;;;;;;;;22.64;60.44;99645.09;2080859;28;20625;-44
2021/08/08 00:55:54;;;;;;;;;;;;;;;22.63;60.70;99635.13;2080102;28;19916;-44
2021/08/08 00:56:55;;;;;;;;;;;;;;;22.64;60.54;99636.88;2082709;28;19920;-43
2021/08/08 00:57:55;;;;;;;;;;;;;;;22.63;60.69;99632.41;2079239;28;20192;-43
2021/08/08 00:58:56;;;;;;;;;;;;;;;22.63;60.52;99637.88;2081955;28;19985;-43
2021/08/08 00:59:56;;;;;;;;;;;;;;;22.64;60.72;99630.53;2081668;28;19924;-44
2021/08/08 01:00:58;;;;;;;;;;;;;;;22.63;60.61;99631.53;2083494;28;20557;-43
2021/08/08 01:02:00;;;;;;;;;;;;;;;22.64;60.70;99627.78;2081595;28;19970;-43
2021/08/08 01:03:02;;;;;;;;;;;;;;;22.63;60.67;99629.66;2079732;28;19931;-43
2021/08/08 01:04:03;;;;;;;;;;;;;;;22.64;60.70;99627.78;2082061;28;20026;-45
2021/08/08 01:05:10;;;;;;;;;;;;;;;22.63;60.55;99626.91;2081318;28;19920;-44
2021/08/08 01:06:29;;;;;;;;;;;;;;;22.61;60.57;99626.25;2080339;28;19920;-44
2021/08/08 01:07:31;;;;;;;;;;;;;;;22.62;60.70;99627.09;2081609;28;19908;-43
2021/08/08 01:08:32;;;;;;;;;;;;;;;22.63;60.74;99620.56;2081651;28;20358;-45
2021/08/08 01:09:34;;;;;;;;;;;;;;;22.62;60.78;99625.22;2082884;28;19978;-43
2021/08/08 01:10:35;;;;;;;;;;;;;;;22.62;60.49;99619.72;2079855;28;19971;-43
2021/08/08 01:11:36;;;;;;;;;;;;;;;22.62;60.52;99624.34;2080697;28;19927;-44
2021/08/08 01:12:38;;;;;;;;;;;;;;;22.62;60.70;99622.47;2078969;28;19920;-43
2021/08/08 01:13:39;;;;;;;;;;;;;;;22.62;60.77;99625.22;2081930;28;20536;-43
2021/08/08 01:14:40;;;;;;;;;;;;;;;22.62;60.45;99619.72;2083248;28;20054;-44
2021/08/08 01:15:42;;;;;;;;;;;;;;;22.62;60.57;99624.34;2079508;28;19920;-43
2021/08/08 01:16:42;;;;;;;;;;;;;;;22.61;60.82;99620.75;2082362;28;19912;-43
2021/08/08 01:17:43;;;;;;;;;;;;;;;22.60;60.79;99616.28;2081676;28;19920;-44
2021/08/08 01:18:44;;;;;;;;;;;;;;;22.60;60.60;99621.78;2080180;28;20023;-45
2021/08/08 01:19:58;;;;;;;;;;;;;;;22.60;60.84;99621.78;2080104;28;20327;-44
2021/08/08 01:21:00;;;;;;;;;;;;;;;22.61;60.65;99622.63;2081213;28;20565;-44
2021/08/08 01:22:01;;;;;;;;;;;;;;;22.61;60.76;99623.50;2081898;28;19961;-43
2021/08/08 01:23:03;;;;;;;;;;;;;;;22.60;60.76;99619.03;2082423;28;19920;-44
2021/08/08 01:24:04;;;;;;;;;;;;;;;22.60;60.63;99624.53;2080826;28;20159;-44
2021/08/08 01:25:06;;;;;;;;;;;;;;;22.60;60.60;99621.78;2081717;28;20322;-43
2021/08/08 01:26:06;;;;;;;;;;;;;;;22.60;60.84;99626.44;2081599;28;19916;-44
2021/08/08 01:27:07;;;;;;;;;;;;;;;22.59;60.58;99625.59;2082637;28;19984;-43
2021/08/08 01:28:07;;;;;;;;;;;;;;;22.60;60.61;99632.78;2079715;28;19924;-44
2021/08/08 01:29:08;;;;;;;;;;;;;;;22.58;60.86;99628.50;2082405;28;19920;-44
2021/08/08 01:30:09;;;;;;;;;;;;;;;22.59;60.81;99630.22;2088134;28;20656;-44
2021/08/08 01:31:09;;;;;;;;;;;;;;;22.59;60.67;99627.47;2089733;28;19920;-44
2021/08/08 01:32:09;;;;;;;;;;;;;;;22.59;60.88;99625.59;2080423;28;20258;-43
2021/08/08 01:33:10;;;;;;;;;;;;;;;22.59;60.57;99628.31;2078925;28;19920;-44
2021/08/08 01:34:11;;;;;;;;;;;;;;;22.60;60.67;99627.28;2080212;28;20018;-44
2021/08/08 01:35:13;;;;;;;;;;;;;;;22.58;60.82;99629.34;2081882;28;19978;-44
2021/08/08 01:36:16;;;;;;;;;;;;;;;22.60;60.67;99635.53;2079501;28;19924;-43
2021/08/08 01:37:20;;;;;;;;;;;;;;;22.59;60.81;99630.22;2079522;28;19939;-43
2021/08/08 01:38:20;;;;;;;;;;;;;;;22.59;60.60;99630.22;2082914;28;20265;-42
2021/08/08 01:39:21;;;;;;;;;;;;;;;22.59;60.83;99631.06;2082531;28;19931;-43
2021/08/08 01:40:28;;;;;;;;;;;;;;;22.59;60.66;99642.06;2082206;28;20035;-45
2021/08/08 01:41:30;;;;;;;;;;;;;;;22.59;60.77;99630.22;2081222;28;20058;-43
2021/08/08 01:42:31;;;;;;;;;;;;;;;22.58;60.59;99637.59;2080618;28;19942;-43
2021/08/08 01:43:33;;;;;;;;;;;;;;;22.59;60.81;99633.81;2082412;28;20373;-43
2021/08/08 01:44:39;;;;;;;;;;;;;;;22.58;60.78;99634.84;2082223;28;19927;-44
2021/08/08 01:45:41;;;;;;;;;;;;;;;22.58;60.76;99637.59;2081922;28;19924;-45
2021/08/08 01:46:42;;;;;;;;;;;;;;;22.57;60.91;99635.91;2082107;28;19921;-43
2021/08/08 01:47:44;;;;;;;;;;;;;;;22.58;60.84;99632.09;2081228;28;19924;-44
2021/08/08 01:48:46;;;;;;;;;;;;;;;22.58;60.59;99634.84;2080851;28;19967;-43
2021/08/08 01:49:47;;;;;;;;;;;;;;;22.58;60.59;99634.84;2082025;28;19916;-43
2021/08/08 01:50:48;;;;;;;;;;;;;;;22.58;60.88;99632.09;2080143;28;20294;-45
2021/08/08 01:51:49;;;;;;;;;;;;;;;22.58;60.88;99637.59;2080318;28;20358;-44
2021/08/08 01:52:50;;;;;;;;;;;;;;;22.58;60.86;99639.50;2081790;28;20420;-44
2021/08/08 01:53:50;;;;;;;;;;;;;;;22.56;60.68;99631.41;2081044;28;19928;-44
2021/08/08 01:54:53;;;;;;;;;;;;;;;22.57;60.72;99638.63;2083095;28;19925;-44
2021/08/08 01:55:53;;;;;;;;;;;;;;;22.56;60.76;99639.66;2080467;28;20224;-44
2021/08/08 01:56:53;;;;;;;;;;;;;;;22.57;60.76;99641.38;2082190;28;19927;-44
2021/08/08 01:57:54;;;;;;;;;;;;;;;22.56;60.83;99636.91;2080463;28;19971;-43
2021/08/08 01:58:55;;;;;;;;;;;;;;;22.56;60.91;99639.66;2081051;28;20259;-45
2021/08/08 01:59:55;;;;;;;;;;;;;;;22.57;60.85;99644.13;2080500;28;19920;-44
2021/08/08 02:00:56;;;;;;;;;;;;;;;22.57;60.99;99633.16;2081540;28;20416;-43
2021/08/08 02:02:07;;;;;;;;;;;;;;;22.57;60.76;99637.78;2079946;28;19927;-43
2021/08/08 02:03:09;;;;;;;;;;;;;;;22.57;60.84;99644.13;2082203;28;19928;-44
2021/08/08 02:04:15;;;;;;;;;;;;;;;22.55;60.92;99635.22;2082560;28;19909;-44
2021/08/08 02:05:16;;;;;;;;;;;;;;;22.56;60.98;99642.41;2080071;28;19920;-43
2021/08/08 02:06:16;;;;;;;;;;;;;;;22.55;60.96;99637.97;2078251;28;20834;-44
2021/08/08 02:07:17;;;;;;;;;;;;;;;22.55;60.94;99648.94;2076838;28;20015;-44
2021/08/08 02:08:17;;;;;;;;;;;;;;;22.56;60.79;99647.06;2081400;28;19927;-45
2021/08/08 02:09:18;;;;;;;;;;;;;;;22.55;60.77;99646.22;2084765;28;19925;-45
2021/08/08 02:10:18;;;;;;;;;;;;;;;22.54;60.80;99641.75;2082208;28;19913;-43
2021/08/08 02:11:19;;;;;;;;;;;;;;;22.55;60.92;99646.22;2081778;28;19969;-44
2021/08/08 02:12:20;;;;;;;;;;;;;;;22.54;60.72;99644.50;2083605;28;20358;-43
2021/08/08 02:13:20;;;;;;;;;;;;;;;22.55;60.83;99656.34;2080682;28;19996;-43
2021/08/08 02:14:21;;;;;;;;;;;;;;;22.54;60.77;99652.75;2079652;28;20368;-43
2021/08/08 02:15:21;;;;;;;;;;;;;;;22.54;60.77;99647.25;2080792;28;19944;-44
2021/08/08 02:16:21;;;;;;;;;;;;;;;22.54;60.94;99652.75;2081855;28;19920;-43
2021/08/08 02:17:21;;;;;;;;;;;;;;;22.54;61.06;99650.00;2082796;28;19921;-43
2021/08/08 02:18:22;;;;;;;;;;;;;;;22.54;61.02;99639.00;2081664;28;20440;-45
2021/08/08 02:19:22;;;;;;;;;;;;;;;22.54;60.93;99646.38;2081691;28;19966;-42
2021/08/08 02:20:23;;;;;;;;;;;;;;;22.54;60.96;99650.00;2082753;28;19931;-44
2021/08/08 02:21:23;;;;;;;;;;;;;;;22.55;60.85;99650.84;2081001;28;19920;-44
2021/08/08 02:22:23;;;;;;;;;;;;;;;22.55;60.84;99646.22;2081224;28;20256;-44
2021/08/08 02:23:24;;;;;;;;;;;;;;;22.54;60.93;99647.25;2081825;28;19916;-43
2021/08/08 02:24:24;;;;;;;;;;;;;;;22.54;60.78;99644.50;2081209;28;20651;-43
2021/08/08 02:25:24;;;;;;;;;;;;;;;22.54;60.86;99650.00;2081462;28;19920;-43
2021/08/08 02:26:25;;;;;;;;;;;;;;;22.53;60.98;99648.28;2081519;28;19921;-45
2021/08/08 02:27:25;;;;;;;;;;;;;;;22.53;60.83;99645.53;2081325;28;19920;-43
2021/08/08 02:28:25;;;;;;;;;;;;;;;22.54;60.80;99654.63;2083409;28;19956;-43
2021/08/08 02:29:26;;;;;;;;;;;;;;;22.54;60.86;99646.38;2083293;28;19935;-43
2021/08/08 02:30:26;;;;;;;;;;;;;;;22.52;60.89;99652.06;2081770;28;20019;-44
2021/08/08 02:31:34;;;;;;;;;;;;;;;22.53;60.87;99653.78;2081305;28;19966;-45
2021/08/08 02:32:34;;;;;;;;;;;;;;;22.53;60.81;99651.03;2081337;28;19920;-43
2021/08/08 02:33:35;;;;;;;;;;;;;;;22.52;60.86;99646.59;2080378;28;19925;-43
2021/08/08 02:34:35;;;;;;;;;;;;;;;22.53;60.98;99652.91;2080988;28;20286;-44
2021/08/08 02:35:35;;;;;;;;;;;;;;;22.53;61.03;99647.44;2078440;28;20549;-43
2021/08/08 02:36:36;;;;;;;;;;;;;;;22.52;60.85;99648.47;2081794;28;19908;-43
2021/08/08 02:37:37;;;;;;;;;;;;;;;22.52;60.91;99656.72;2079922;28;19927;-45
2021/08/08 02:38:37;;;;;;;;;;;;;;;22.52;60.80;99652.06;2082475;28;19951;-43
2021/08/08 02:39:38;;;;;;;;;;;;;;;22.52;61.03;99649.31;2081237;28;19942;-43
2021/08/08 02:40:38;;;;;;;;;;;;;;;22.52;60.87;99649.31;2080997;28;20338;-43
2021/08/08 02:41:38;;;;;;;;;;;;;;;22.52;61.10;99657.56;2081905;28;19928;-43
2021/08/08 02:42:39;;;;;;;;;;;;;;;22.53;60.97;99658.41;2080049;28;19964;-43
2021/08/08 02:43:39;;;;;;;;;;;;;;;22.53;61.20;99656.50;2083191;28;22815;-43
2021/08/08 02:44:39;;;;;;;;;;;;;;;22.53;60.87;99655.66;2078784;28;19964;-43
2021/08/08 02:45:39;;;;;;;;;;;;;;;22.53;60.95;99659.25;2080578;28;19921;-43
2021/08/08 02:46:40;;;;;;;;;;;;;;;22.53;60.81;99659.25;2081738;28;20733;-44
2021/08/08 02:47:40;;;;;;;;;;;;;;;22.52;60.86;99663.06;2080088;28;20312;-42
2021/08/08 02:48:40;;;;;;;;;;;;;;;22.53;60.89;99669.41;2083308;28;19924;-43
2021/08/08 02:49:41;;;;;;;;;;;;;;;22.52;61.07;99665.81;2081320;28;20228;-44
2021/08/08 02:50:41;;;;;;;;;;;;;;;22.52;61.03;99674.03;2079377;28;19981;-44
2021/08/08 02:51:41;;;;;;;;;;;;;;;22.52;60.92;99670.44;2081312;28;19931;-44
2021/08/08 02:52:42;;;;;;;;;;;;;;;22.52;61.04;99671.28;2081494;28;19939;-43
2021/08/08 02:53:42;;;;;;;;;;;;;;;22.52;60.92;99662.22;2080428;28;19919;-44
2021/08/08 02:54:43;;;;;;;;;;;;;;;22.52;61.15;99668.56;2078266;28;19973;-43
2021/08/08 02:55:43;;;;;;;;;;;;;;;22.52;61.08;99663.06;2078529;28;20266;-44
2021/08/08 02:56:44;;;;;;;;;;;;;;;22.52;60.82;99668.56;2081400;28;20021;-46
2021/08/08 02:57:44;;;;;;;;;;;;;;;22.51;60.97;99672.31;2081528;28;19952;-44
2021/08/08 02:58:44;;;;;;;;;;;;;;;22.51;61.15;99672.31;2081195;28;19968;-43
2021/08/08 02:59:44;;;;;;;;;;;;;;;22.52;60.92;99674.03;2081003;28;19951;-44
2021/08/08 03:00:45;;;;;;;;;;;;;;;22.51;60.85;99668.72;2081261;28;20227;-46
2021/08/08 03:01:45;;;;;;;;;;;;;;;22.51;61.09;99666.81;2082449;28;19971;-45
2021/08/08 03:02:45;;;;;;;;;;;;;;;22.51;61.13;99666.81;2091634;28;20380;-44
2021/08/08 03:03:46;;;;;;;;;;;;;;;22.51;60.90;99668.72;2083747;28;19934;-44
2021/08/08 03:04:46;;;;;;;;;;;;;;;22.50;61.04;99676.13;2079448;28;20436;-42
2021/08/08 03:05:47;;;;;;;;;;;;;;;22.49;60.84;99668.94;2080419;28;20334;-44
2021/08/08 03:06:47;;;;;;;;;;;;;;;22.50;60.96;99670.63;2079506;28;20378;-44
2021/08/08 03:07:49;;;;;;;;;;;;;;;22.50;61.20;99670.63;2082716;28;19921;-44
2021/08/08 03:08:50;;;;;;;;;;;;;;;22.50;60.93;99673.38;2079247;28;20679;-44
2021/08/08 03:09:50;;;;;;;;;;;;;;;22.51;61.03;99672.31;2081378;28;19920;-44
2021/08/08 03:10:50;;;;;;;;;;;;;;;22.50;61.01;99676.13;2080159;28;20425;-43
2021/08/08 03:11:51;;;;;;;;;;;;;;;22.51;61.03;99672.31;2088008;28;19934;-43
2021/08/08 03:12:51;;;;;;;;;;;;;;;22.50;61.10;99670.63;2090240;28;19923;-43
2021/08/08 03:13:51;;;;;;;;;;;;;;;22.49;61.13;99679.91;2079747;28;19920;-43
2021/08/08 03:14:52;;;;;;;;;;;;;;;22.48;60.92;99681.78;2082141;28;20341;-44
2021/08/08 03:15:52;;;;;;;;;;;;;;;22.50;61.01;99680.75;2081525;28;20891;-45
2021/08/08 03:16:52;;;;;;;;;;;;;;;22.49;61.14;99679.91;2082081;28;21185;-44
2021/08/08 03:17:53;;;;;;;;;;;;;;;22.50;61.05;99678.00;2083719;28;19934;-45
2021/08/08 03:18:53;;;;;;;;;;;;;;;22.50;60.90;99681.59;2081084;28;19939;-43
2021/08/08 03:19:54;;;;;;;;;;;;;;;22.50;61.12;99681.59;2082281;28;19953;-44
2021/08/08 03:20:54;;;;;;;;;;;;;;;22.50;61.06;99684.34;2077893;28;20262;-44
2021/08/08 03:21:54;;;;;;;;;;;;;;;22.50;61.16;99675.25;2079144;28;19924;-44
2021/08/08 03:22:54;;;;;;;;;;;;;;;22.48;61.14;99681.78;2079099;28;20074;-43
2021/08/08 03:23:55;;;;;;;;;;;;;;;22.49;61.21;99674.41;2080412;28;19924;-44
2021/08/08 03:24:55;;;;;;;;;;;;;;;22.49;61.05;99682.66;2082253;28;21389;-43
2021/08/08 03:25:55;;;;;;;;;;;;;;;22.49;60.99;99674.41;2080650;28;20259;-45
2021/08/08 03:26:56;;;;;;;;;;;;;;;22.50;61.14;99681.59;2081491;28;19934;-44
2021/08/08 03:27:56;;;;;;;;;;;;;;;22.50;61.32;99691.75;2079248;28;20327;-44
2021/08/08 03:28:56;;;;;;;;;;;;;;;22.49;61.07;99685.41;2079791;28;19921;-45
2021/08/08 03:29:56;;;;;;;;;;;;;;;22.48;61.18;99684.53;2080781;28;19931;-44
2021/08/08 03:30:57;;;;;;;;;;;;;;;22.48;61.08;99690.00;2077289;28;20497;-44
2021/08/08 03:31:57;;;;;;;;;;;;;;;22.48;61.18;99683.69;2080325;28;19928;-43
2021/08/08 03:32:57;;;;;;;;;;;;;;;22.49;61.06;99685.41;2079030;28;19952;-43
2021/08/08 03:33:57;;;;;;;;;;;;;;;22.49;61.16;99690.91;2081475;28;19923;-44
2021/08/08 03:34:58;;;;;;;;;;;;;;;22.48;61.27;99684.53;2079292;28;19931;-45
2021/08/08 03:35:58;;;;;;;;;;;;;;;22.48;61.15;99689.16;2081404;28;20054;-45
2021/08/08 03:36:58;;;;;;;;;;;;;;;22.49;61.23;99690.91;2082184;28;19924;-43
2021/08/08 03:37:59;;;;;;;;;;;;;;;22.50;61.17;99691.75;2081649;28;19921;-44
2021/08/08 03:38:59;;;;;;;;;;;;;;;22.50;61.25;99687.09;2080537;28;19968;-45
2021/08/08 03:39:59;;;;;;;;;;;;;;;22.50;61.03;99691.75;2081679;28;20366;-43
2021/08/08 03:41:00;;;;;;;;;;;;;;;22.50;61.22;99692.59;2081664;28;19931;-45
2021/08/08 03:42:00;;;;;;;;;;;;;;;22.49;61.23;99693.66;2081841;28;19927;-44
2021/08/08 03:43:00;;;;;;;;;;;;;;;22.48;61.02;99694.66;2080708;28;19931;-43
2021/08/08 03:44:01;;;;;;;;;;;;;;;22.49;61.27;99696.38;2080681;28;20226;-44
2021/08/08 03:45:01;;;;;;;;;;;;;;;22.49;61.33;99699.13;2082440;28;19920;-45
2021/08/08 03:46:01;;;;;;;;;;;;;;;22.48;61.24;99701.00;2082183;28;19947;-44
2021/08/08 03:47:02;;;;;;;;;;;;;;;22.48;61.31;99705.66;2083868;28;19928;-43
2021/08/08 03:48:02;;;;;;;;;;;;;;;22.49;61.14;99701.88;2083409;28;20003;-43
2021/08/08 03:49:03;;;;;;;;;;;;;;;22.48;61.12;99702.91;2081357;28;20073;-44
2021/08/08 03:50:03;;;;;;;;;;;;;;;22.47;61.11;99702.06;2083253;28;19927;-45
2021/08/08 03:51:04;;;;;;;;;;;;;;;22.47;61.26;99699.31;2079922;28;19916;-43
2021/08/08 03:52:04;;;;;;;;;;;;;;;22.48;61.10;99705.66;2081950;28;19928;-44
2021/08/08 03:53:06;;;;;;;;;;;;;;;22.47;61.08;99703.94;2082903;28;19920;-43
2021/08/08 03:54:06;;;;;;;;;;;;;;;22.47;61.14;99703.94;2082277;28;20422;-43
2021/08/08 03:55:06;;;;;;;;;;;;;;;22.47;61.00;99703.94;2080116;28;19917;-44
2021/08/08 03:56:07;;;;;;;;;;;;;;;22.47;61.11;99702.06;2082347;28;19931;-43
2021/08/08 03:57:07;;;;;;;;;;;;;;;22.47;61.26;99704.81;2081283;28;19916;-44
2021/08/08 03:58:07;;;;;;;;;;;;;;;22.47;61.28;99702.06;2081005;28;19943;-44
2021/08/08 03:59:08;;;;;;;;;;;;;;;22.48;61.21;99705.66;2084457;28;19905;-45
2021/08/08 04:00:08;;;;;;;;;;;;;;;22.47;61.21;99704.81;2079738;28;19912;-43
2021/08/08 04:01:09;;;;;;;;;;;;;;;22.47;61.25;99715.78;2078506;28;20341;-44
2021/08/08 04:02:09;;;;;;;;;;;;;;;22.48;61.07;99708.41;2083483;28;20563;-43
2021/08/08 04:03:09;;;;;;;;;;;;;;;22.48;61.28;99713.88;2081901;28;20866;-43
2021/08/08 04:04:10;;;;;;;;;;;;;;;22.47;61.04;99715.78;2081647;28;20039;-44
2021/08/08 04:05:10;;;;;;;;;;;;;;;22.46;61.37;99708.59;2077688;28;19921;-45
2021/08/08 04:06:10;;;;;;;;;;;;;;;22.47;61.32;99715.78;2083868;28;20349;-45
2021/08/08 04:07:11;;;;;;;;;;;;;;;22.47;61.36;99715.78;2080731;28;19913;-43
2021/08/08 04:08:11;;;;;;;;;;;;;;;22.48;61.02;99716.63;2081796;28;19908;-44
2021/08/08 04:09:11;;;;;;;;;;;;;;;22.48;61.22;99712.00;2081095;28;20200;-45
2021/08/08 04:10:12;;;;;;;;;;;;;;;22.48;61.18;99711.13;2083234;28;19920;-44
2021/08/08 04:11:13;;;;;;;;;;;;;;;22.46;61.08;99718.69;2081908;28;19924;-44
2021/08/08 04:12:13;;;;;;;;;;;;;;;22.46;61.20;99713.22;2084440;28;19925;-44
2021/08/08 04:13:14;;;;;;;;;;;;;;;22.47;61.35;99714.94;2082278;28;19941;-44
2021/08/08 04:14:14;;;;;;;;;;;;;;;22.45;61.09;99712.34;2083617;28;19924;-44
2021/08/08 04:15:15;;;;;;;;;;;;;;;22.46;61.13;99708.59;2080741;28;19931;-42
2021/08/08 04:16:15;;;;;;;;;;;;;;;22.46;61.23;99714.09;2082406;28;19924;-44
2021/08/08 04:17:16;;;;;;;;;;;;;;;22.46;61.28;99707.72;2082347;28;19980;-44
2021/08/08 04:18:16;;;;;;;;;;;;;;;22.45;61.23;99706.03;2081857;28;19920;-43
2021/08/08 04:19:16;;;;;;;;;;;;;;;22.46;61.25;99707.72;2083668;28;19912;-43
2021/08/08 04:20:17;;;;;;;;;;;;;;;22.45;61.40;99706.88;2080284;28;19916;-44
2021/08/08 04:21:17;;;;;;;;;;;;;;;22.46;61.30;99704.97;2082418;28;19915;-43
2021/08/08 04:22:18;;;;;;;;;;;;;;;22.46;61.36;99702.22;2081097;28;20318;-44
2021/08/08 04:23:18;;;;;;;;;;;;;;;22.46;61.37;99705.84;2081554;28;19913;-43
2021/08/08 04:24:18;;;;;;;;;;;;;;;22.46;61.30;99703.09;2080001;28;19952;-44
2021/08/08 04:25:19;;;;;;;;;;;;;;;22.46;61.10;99711.34;2082197;28;19919;-44
2021/08/08 04:26:19;;;;;;;;;;;;;;;22.46;61.30;99702.22;2080607;28;19909;-43
2021/08/08 04:27:19;;;;;;;;;;;;;;;22.46;61.20;99702.22;2080261;28;20466;-44
2021/08/08 04:28:20;;;;;;;;;;;;;;;22.46;61.29;99704.97;2082833;28;20296;-43
2021/08/08 04:29:21;;;;;;;;;;;;;;;22.44;61.22;99699.69;2082815;28;19937;-44
2021/08/08 04:30:21;;;;;;;;;;;;;;;22.45;61.26;99697.78;2082391;28;20446;-43
2021/08/08 04:31:21;;;;;;;;;;;;;;;22.46;61.21;99705.84;2083021;28;19946;-45
2021/08/08 04:32:23;;;;;;;;;;;;;;;22.46;61.36;99702.22;2081523;28;19978;-44
2021/08/08 04:33:24;;;;;;;;;;;;;;;22.45;61.28;99712.34;2082204;28;20384;-44
2021/08/08 04:34:24;;;;;;;;;;;;;;;22.45;61.26;99700.53;2079372;28;20392;-43
2021/08/08 04:35:25;;;;;;;;;;;;;;;22.44;61.35;99704.28;2083476;28;19921;-44
2021/08/08 04:36:25;;;;;;;;;;;;;;;22.45;61.41;99703.28;2082068;28;20351;-44
2021/08/08 04:37:25;;;;;;;;;;;;;;;22.46;61.43;99699.47;2082189;28;20394;-44
2021/08/08 04:38:26;;;;;;;;;;;;;;;22.44;61.28;99702.44;2081426;28;19919;-44
2021/08/08 04:39:26;;;;;;;;;;;;;;;22.45;61.28;99708.75;2081656;28;19927;-44
2021/08/08 04:40:27;;;;;;;;;;;;;;;22.44;61.47;99707.91;2080901;28;19950;-45
2021/08/08 04:41:27;;;;;;;;;;;;;;;22.45;61.52;99704.13;2081307;28;19924;-44
2021/08/08 04:42:27;;;;;;;;;;;;;;;22.44;61.34;99704.28;2080918;28;19924;-44
2021/08/08 04:43:28;;;;;;;;;;;;;;;22.43;61.32;99706.19;2081637;28;19908;-44
2021/08/08 04:44:28;;;;;;;;;;;;;;;22.43;61.45;99705.34;2077704;28;19916;-43
2021/08/08 04:45:29;;;;;;;;;;;;;;;22.43;61.42;99708.94;2077317;28;20224;-43
2021/08/08 04:46:29;;;;;;;;;;;;;;;22.43;61.38;99706.19;2082410;28;19931;-43
2021/08/08 04:47:29;;;;;;;;;;;;;;;22.43;61.40;99711.69;2082512;28;19924;-43
2021/08/08 04:48:30;;;;;;;;;;;;;;;22.43;61.34;99714.44;2080919;28;20788;-43
2021/08/08 04:49:30;;;;;;;;;;;;;;;22.43;61.25;99713.56;2082281;28;20047;-44
2021/08/08 04:50:30;;;;;;;;;;;;;;;22.42;61.45;99717.38;2080229;28;20333;-43
2021/08/08 04:51:31;;;;;;;;;;;;;;;22.43;61.28;99713.56;2083946;28;20380;-43
2021/08/08 04:52:36;;;;;;;;;;;;;;;22.43;61.43;99719.06;2079852;28;20377;-44
2021/08/08 04:53:36;;;;;;;;;;;;;;;22.44;61.31;99709.78;2078767;28;19928;-44
2021/08/08 04:54:36;;;;;;;;;;;;;;;22.43;61.39;99717.16;2082145;28;20540;-44
2021/08/08 04:55:37;;;;;;;;;;;;;;;22.43;61.37;99719.06;2081085;28;20171;-43
2021/08/08 04:56:37;;;;;;;;;;;;;;;22.43;61.33;99719.06;2079633;28;19917;-44
2021/08/08 04:57:37;;;;;;;;;;;;;;;22.43;61.35;99716.31;2079045;28;19920;-43
2021/08/08 04:58:37;;;;;;;;;;;;;;;22.43;61.38;99714.44;2082331;28;20465;-44
2021/08/08 04:59:38;;;;;;;;;;;;;;;22.43;61.48;99724.56;2081443;28;19916;-44
2021/08/08 05:00:38;;;;;;;;;;;;;;;22.42;61.37;99718.22;2080033;28;19921;-44
2021/08/08 05:01:39;;;;;;;;;;;;;;;22.43;61.53;99724.56;2082932;28;20260;-43
2021/08/08 05:02:47;;;;;;;;;;;;;;;22.44;61.31;99720.78;2081010;28;19925;-44
2021/08/08 05:03:47;;;;;;;;;;;;;;;22.43;61.36;99724.56;2083252;28;19921;-44
2021/08/08 05:04:47;;;;;;;;;;;;;;;22.43;61.32;99724.56;2080955;28;20002;-43
2021/08/08 05:05:48;;;;;;;;;;;;;;;22.43;61.33;99730.06;2082500;28;19916;-44
2021/08/08 05:06:48;;;;;;;;;;;;;;;22.44;61.38;99737.25;2079560;28;19916;-43
2021/08/08 05:07:49;;;;;;;;;;;;;;;22.43;61.43;99735.56;2083267;28;19920;-43
2021/08/08 05:08:49;;;;;;;;;;;;;;;22.43;61.36;99735.56;2082404;28;19927;-43
2021/08/08 05:09:49;;;;;;;;;;;;;;;22.43;61.23;99735.56;2082002;28;20364;-43
2021/08/08 05:10:50;;;;;;;;;;;;;;;22.44;61.27;99737.25;2083526;28;19920;-45
2021/08/08 05:11:50;;;;;;;;;;;;;;;22.43;61.54;99738.28;2081158;28;19929;-44
2021/08/08 05:12:51;;;;;;;;;;;;;;;22.43;61.51;99741.03;2080619;28;19927;-43
2021/08/08 05:13:52;;;;;;;;;;;;;;;22.42;61.37;99745.69;2082445;28;20313;-43
2021/08/08 05:14:52;;;;;;;;;;;;;;;22.43;61.59;99741.03;2078888;28;19963;-44
2021/08/08 05:15:53;;;;;;;;;;;;;;;22.42;61.34;99744.84;2083105;28;20575;-43
2021/08/08 05:16:53;;;;;;;;;;;;;;;22.42;61.38;99739.34;2080670;28;19921;-43